sensor_id;sensor_type;location;lat;lon;timestamp;temperature;humidity
73112;HTU21D;61301;51.956;5.876;2024-02-28T00:01:50;8.98;58.29
73112;HTU21D;61301;51.956;5.876;2024-02-28T00:04:17;9.03;58.58
73112;HTU21D;61301;51.956;5.876;2024-02-28T00:06:43;9.03;58.58
73112;HTU21D;61301;51.956;5.876;2024-02-28T00:09:12;8.95;58.89
73112;HTU21D;61301;51.956;5.876;2024-02-28T00:11:45;8.97;58.88
73112;HTU21D;61301;51.956;5.876;2024-02-28T00:14:12;8.96;58.75
73112;HTU21D;61301;51.956;5.876;2024-02-28T00:16:45;8.91;58.91
73112;HTU21D;61301;51.956;5.876;2024-02-28T00:19:12;9.01;58.68
73112;HTU21D;61301;51.956;5.876;2024-02-28T00:21:42;9.04;58.81
73112;HTU21D;61301;51.956;5.876;2024-02-28T00:24:08;9.08;59.19
73112;HTU21D;61301;51.956;5.876;2024-02-28T00:26:34;9.22;59.09
73112;HTU21D;61301;51.956;5.876;2024-02-28T00:29:00;9.34;58.58
73112;HTU21D;61301;51.956;5.876;2024-02-28T00:31:26;9.35;58.25
73112;HTU21D;61301;51.956;5.876;2024-02-28T00:33:52;9.36;58.19
73112;HTU21D;61301;51.956;5.876;2024-02-28T00:36:18;9.42;58.03
73112;HTU21D;61301;51.956;5.876;2024-02-28T00:38:44;9.45;57.84
73112;HTU21D;61301;51.956;5.876;2024-02-28T00:41:10;9.49;57.35
73112;HTU21D;61301;51.956;5.876;2024-02-28T00:43:39;9.41;57.46
73112;HTU21D;61301;51.956;5.876;2024-02-28T00:46:06;9.44;57.29
73112;HTU21D;61301;51.956;5.876;2024-02-28T00:48:37;9.39;57.23
73112;HTU21D;61301;51.956;5.876;2024-02-28T00:51:04;9.30;57.41
73112;HTU21D;61301;51.956;5.876;2024-02-28T00:53:31;9.26;57.55
73112;HTU21D;61301;51.956;5.876;2024-02-28T00:55:57;9.34;57.46
73112;HTU21D;61301;51.956;5.876;2024-02-28T00:58:23;9.44;57.19
73112;HTU21D;61301;51.956;5.876;2024-02-28T01:00:49;9.51;57.31
73112;HTU21D;61301;51.956;5.876;2024-02-28T01:03:15;9.64;57.35
73112;HTU21D;61301;51.956;5.876;2024-02-28T01:05:41;9.72;57.04
73112;HTU21D;61301;51.956;5.876;2024-02-28T01:08:07;9.69;56.77
73112;HTU21D;61301;51.956;5.876;2024-02-28T01:10:34;9.63;56.55
73112;HTU21D;61301;51.956;5.876;2024-02-28T01:13:00;9.50;56.74
73112;HTU21D;61301;51.956;5.876;2024-02-28T01:15:26;9.47;56.93
73112;HTU21D;61301;51.956;5.876;2024-02-28T01:17:52;9.36;56.87
73112;HTU21D;61301;51.956;5.876;2024-02-28T01:20:18;9.29;57.01
73112;HTU21D;61301;51.956;5.876;2024-02-28T01:22:44;9.14;57.39
73112;HTU21D;61301;51.956;5.876;2024-02-28T01:25:10;9.06;57.65
73112;HTU21D;61301;51.956;5.876;2024-02-28T01:27:42;8.96;57.97
73112;HTU21D;61301;51.956;5.876;2024-02-28T01:30:09;8.95;58.22
73112;HTU21D;61301;51.956;5.876;2024-02-28T01:32:35;8.90;58.16
73112;HTU21D;61301;51.956;5.876;2024-02-28T01:35:02;8.98;58.28
73112;HTU21D;61301;51.956;5.876;2024-02-28T01:37:29;8.97;58.12
73112;HTU21D;61301;51.956;5.876;2024-02-28T01:39:55;9.01;58.39
73112;HTU21D;61301;51.956;5.876;2024-02-28T01:42:21;9.16;58.15
73112;HTU21D;61301;51.956;5.876;2024-02-28T01:44:48;9.12;58.16
73112;HTU21D;61301;51.956;5.876;2024-02-28T01:47:15;9.14;57.96
73112;HTU21D;61301;51.956;5.876;2024-02-28T01:49:42;9.06;57.88
73112;HTU21D;61301;51.956;5.876;2024-02-28T01:52:09;9.06;58.19
73112;HTU21D;61301;51.956;5.876;2024-02-28T01:54:35;9.11;58.27
73112;HTU21D;61301;51.956;5.876;2024-02-28T01:57:02;9.06;58.31
73112;HTU21D;61301;51.956;5.876;2024-02-28T01:59:29;9.09;58.24
73112;HTU21D;61301;51.956;5.876;2024-02-28T02:01:55;9.01;58.23
73112;HTU21D;61301;51.956;5.876;2024-02-28T02:04:21;8.94;58.25
73112;HTU21D;61301;51.956;5.876;2024-02-28T02:06:48;9.00;58.71
73112;HTU21D;61301;51.956;5.876;2024-02-28T02:09:18;8.91;58.58
73112;HTU21D;61301;51.956;5.876;2024-02-28T02:11:44;8.94;58.77
73112;HTU21D;61301;51.956;5.876;2024-02-28T02:14:10;9.14;59.09
73112;HTU21D;61301;51.956;5.876;2024-02-28T02:16:36;9.16;58.75
73112;HTU21D;61301;51.956;5.876;2024-02-28T02:19:03;9.38;59.43
73112;HTU21D;61301;51.956;5.876;2024-02-28T02:21:37;9.60;58.86
73112;HTU21D;61301;51.956;5.876;2024-02-28T02:24:03;9.52;58.50
73112;HTU21D;61301;51.956;5.876;2024-02-28T02:26:30;9.51;58.25
73112;HTU21D;61301;51.956;5.876;2024-02-28T02:28:56;9.59;58.34
73112;HTU21D;61301;51.956;5.876;2024-02-28T02:31:22;9.52;58.74
73112;HTU21D;61301;51.956;5.876;2024-02-28T02:33:47;9.54;58.48
73112;HTU21D;61301;51.956;5.876;2024-02-28T02:36:13;9.48;58.44
73112;HTU21D;61301;51.956;5.876;2024-02-28T02:38:39;9.48;58.50
73112;HTU21D;61301;51.956;5.876;2024-02-28T02:41:05;9.49;58.19
73112;HTU21D;61301;51.956;5.876;2024-02-28T02:43:32;9.41;58.10
73112;HTU21D;61301;51.956;5.876;2024-02-28T02:45:58;9.41;58.09
73112;HTU21D;61301;51.956;5.876;2024-02-28T02:48:24;9.26;57.77
73112;HTU21D;61301;51.956;5.876;2024-02-28T02:50:50;9.14;57.67
73112;HTU21D;61301;51.956;5.876;2024-02-28T02:53:16;8.93;57.84
73112;HTU21D;61301;51.956;5.876;2024-02-28T02:55:42;8.91;58.04
73112;HTU21D;61301;51.956;5.876;2024-02-28T02:58:10;8.90;58.00
73112;HTU21D;61301;51.956;5.876;2024-02-28T03:00:36;9.00;58.58
73112;HTU21D;61301;51.956;5.876;2024-02-28T03:03:05;9.18;58.74
73112;HTU21D;61301;51.956;5.876;2024-02-28T03:05:32;9.47;58.83
73112;HTU21D;61301;51.956;5.876;2024-02-28T03:07:58;9.49;58.58
73112;HTU21D;61301;51.956;5.876;2024-02-28T03:10:24;9.68;58.70
73112;HTU21D;61301;51.956;5.876;2024-02-28T03:12:50;9.77;58.22
73112;HTU21D;61301;51.956;5.876;2024-02-28T03:15:16;9.63;57.74
73112;HTU21D;61301;51.956;5.876;2024-02-28T03:17:42;9.46;57.72
73112;HTU21D;61301;51.956;5.876;2024-02-28T03:20:08;9.37;57.72
73112;HTU21D;61301;51.956;5.876;2024-02-28T03:22:35;9.35;57.67
73112;HTU21D;61301;51.956;5.876;2024-02-28T03:25:01;9.34;57.58
73112;HTU21D;61301;51.956;5.876;2024-02-28T03:27:27;9.36;57.80
73112;HTU21D;61301;51.956;5.876;2024-02-28T03:29:53;9.38;57.42
73112;HTU21D;61301;51.956;5.876;2024-02-28T03:32:19;9.30;57.25
73112;HTU21D;61301;51.956;5.876;2024-02-28T03:34:45;9.19;57.42
73112;HTU21D;61301;51.956;5.876;2024-02-28T03:37:11;9.07;57.49
73112;HTU21D;61301;51.956;5.876;2024-02-28T03:39:37;9.00;57.72
73112;HTU21D;61301;51.956;5.876;2024-02-28T03:42:03;8.89;57.93
73112;HTU21D;61301;51.956;5.876;2024-02-28T03:44:29;8.81;58.18
73112;HTU21D;61301;51.956;5.876;2024-02-28T03:46:55;8.78;58.37
73112;HTU21D;61301;51.956;5.876;2024-02-28T03:49:21;8.79;58.55
73112;HTU21D;61301;51.956;5.876;2024-02-28T03:51:47;8.72;58.66
73112;HTU21D;61301;51.956;5.876;2024-02-28T03:54:13;8.66;58.81
73112;HTU21D;61301;51.956;5.876;2024-02-28T03:56:38;8.60;59.12
73112;HTU21D;61301;51.956;5.876;2024-02-28T03:59:04;8.51;59.25
73112;HTU21D;61301;51.956;5.876;2024-02-28T04:01:30;8.48;59.36
73112;HTU21D;61301;51.956;5.876;2024-02-28T04:03:57;8.46;59.31
73112;HTU21D;61301;51.956;5.876;2024-02-28T04:06:23;8.42;59.51
73112;HTU21D;61301;51.956;5.876;2024-02-28T04:08:49;8.39;59.54
73112;HTU21D;61301;51.956;5.876;2024-02-28T04:11:15;8.45;59.51
73112;HTU21D;61301;51.956;5.876;2024-02-28T04:13:41;8.52;59.45
73112;HTU21D;61301;51.956;5.876;2024-02-28T04:16:09;8.56;59.26
73112;HTU21D;61301;51.956;5.876;2024-02-28T04:18:35;8.57;59.14
73112;HTU21D;61301;51.956;5.876;2024-02-28T04:21:02;8.58;59.13
73112;HTU21D;61301;51.956;5.876;2024-02-28T04:23:28;8.60;58.97
73112;HTU21D;61301;51.956;5.876;2024-02-28T04:25:54;8.52;58.99
73112;HTU21D;61301;51.956;5.876;2024-02-28T04:28:20;8.48;58.94
73112;HTU21D;61301;51.956;5.876;2024-02-28T04:30:46;8.42;58.97
73112;HTU21D;61301;51.956;5.876;2024-02-28T04:33:12;8.35;58.99
73112;HTU21D;61301;51.956;5.876;2024-02-28T04:35:41;8.29;59.30
73112;HTU21D;61301;51.956;5.876;2024-02-28T04:38:10;8.27;59.46
73112;HTU21D;61301;51.956;5.876;2024-02-28T04:40:36;8.24;59.54
73112;HTU21D;61301;51.956;5.876;2024-02-28T04:43:02;8.21;59.71
73112;HTU21D;61301;51.956;5.876;2024-02-28T04:45:28;8.19;59.80
73112;HTU21D;61301;51.956;5.876;2024-02-28T04:47:54;8.13;60.03
73112;HTU21D;61301;51.956;5.876;2024-02-28T04:50:22;8.13;60.22
73112;HTU21D;61301;51.956;5.876;2024-02-28T04:52:49;8.12;60.31
73112;HTU21D;61301;51.956;5.876;2024-02-28T04:55:15;8.19;60.16
73112;HTU21D;61301;51.956;5.876;2024-02-28T04:57:41;8.20;59.90
73112;HTU21D;61301;51.956;5.876;2024-02-28T05:00:07;8.19;59.55
73112;HTU21D;61301;51.956;5.876;2024-02-28T05:02:36;8.24;59.62
73112;HTU21D;61301;51.956;5.876;2024-02-28T05:05:02;8.19;59.51
73112;HTU21D;61301;51.956;5.876;2024-02-28T05:07:28;8.15;59.63
73112;HTU21D;61301;51.956;5.876;2024-02-28T05:09:54;8.16;59.61
73112;HTU21D;61301;51.956;5.876;2024-02-28T05:12:20;8.13;59.66
73112;HTU21D;61301;51.956;5.876;2024-02-28T05:14:46;8.13;59.79
73112;HTU21D;61301;51.956;5.876;2024-02-28T05:17:12;8.18;59.86
73112;HTU21D;61301;51.956;5.876;2024-02-28T05:19:39;8.34;59.73
73112;HTU21D;61301;51.956;5.876;2024-02-28T05:22:05;8.38;59.35
73112;HTU21D;61301;51.956;5.876;2024-02-28T05:24:31;8.35;59.28
73112;HTU21D;61301;51.956;5.876;2024-02-28T05:26:57;8.32;59.07
73112;HTU21D;61301;51.956;5.876;2024-02-28T05:29:23;8.23;59.23
73112;HTU21D;61301;51.956;5.876;2024-02-28T05:31:49;8.22;59.29
73112;HTU21D;61301;51.956;5.876;2024-02-28T05:34:15;8.19;59.36
73112;HTU21D;61301;51.956;5.876;2024-02-28T05:36:42;8.30;59.58
73112;HTU21D;61301;51.956;5.876;2024-02-28T05:39:08;8.33;59.35
73112;HTU21D;61301;51.956;5.876;2024-02-28T05:41:34;8.41;59.13
73112;HTU21D;61301;51.956;5.876;2024-02-28T05:44:00;8.41;58.93
73112;HTU21D;61301;51.956;5.876;2024-02-28T05:46:26;8.37;58.93
73112;HTU21D;61301;51.956;5.876;2024-02-28T05:48:52;8.34;58.99
73112;HTU21D;61301;51.956;5.876;2024-02-28T05:51:18;8.46;59.17
73112;HTU21D;61301;51.956;5.876;2024-02-28T05:53:45;8.55;58.77
73112;HTU21D;61301;51.956;5.876;2024-02-28T05:56:11;8.49;58.65
73112;HTU21D;61301;51.956;5.876;2024-02-28T05:58:44;8.51;58.32
73112;HTU21D;61301;51.956;5.876;2024-02-28T06:01:10;8.45;58.21
73112;HTU21D;61301;51.956;5.876;2024-02-28T06:03:39;8.28;58.66
73112;HTU21D;61301;51.956;5.876;2024-02-28T06:06:06;8.16;58.70
73112;HTU21D;61301;51.956;5.876;2024-02-28T06:08:38;8.06;58.69
73112;HTU21D;61301;51.956;5.876;2024-02-28T06:11:04;7.92;58.93
73112;HTU21D;61301;51.956;5.876;2024-02-28T06:13:31;7.87;59.26
73112;HTU21D;61301;51.956;5.876;2024-02-28T06:15:57;7.92;58.88
73112;HTU21D;61301;51.956;5.876;2024-02-28T06:18:24;7.90;58.81
73112;HTU21D;61301;51.956;5.876;2024-02-28T06:20:56;8.00;58.80
73112;HTU21D;61301;51.956;5.876;2024-02-28T06:23:22;7.98;58.64
73112;HTU21D;61301;51.956;5.876;2024-02-28T06:25:49;7.94;58.67
73112;HTU21D;61301;51.956;5.876;2024-02-28T06:28:15;7.91;58.52
73112;HTU21D;61301;51.956;5.876;2024-02-28T06:30:43;7.91;58.88
73112;HTU21D;61301;51.956;5.876;2024-02-28T06:33:09;7.94;58.54
73112;HTU21D;61301;51.956;5.876;2024-02-28T06:35:35;7.91;58.49
73112;HTU21D;61301;51.956;5.876;2024-02-28T06:38:01;7.88;58.36
73112;HTU21D;61301;51.956;5.876;2024-02-28T06:40:27;7.87;58.67
73112;HTU21D;61301;51.956;5.876;2024-02-28T06:42:54;7.91;58.53
73112;HTU21D;61301;51.956;5.876;2024-02-28T06:45:23;7.96;58.58
73112;HTU21D;61301;51.956;5.876;2024-02-28T06:47:49;8.01;58.22
73112;HTU21D;61301;51.956;5.876;2024-02-28T06:50:15;8.04;58.35
73112;HTU21D;61301;51.956;5.876;2024-02-28T06:52:41;8.11;58.49
73112;HTU21D;61301;51.956;5.876;2024-02-28T06:55:08;8.20;58.38
73112;HTU21D;61301;51.956;5.876;2024-02-28T06:57:37;8.23;58.10
73112;HTU21D;61301;51.956;5.876;2024-02-28T07:00:05;8.26;58.00
73112;HTU21D;61301;51.956;5.876;2024-02-28T07:02:34;8.29;58.12
73112;HTU21D;61301;51.956;5.876;2024-02-28T07:05:01;8.33;57.91
73112;HTU21D;61301;51.956;5.876;2024-02-28T07:07:28;8.35;57.84
73112;HTU21D;61301;51.956;5.876;2024-02-28T07:09:54;8.42;57.87
73112;HTU21D;61301;51.956;5.876;2024-02-28T07:12:20;8.51;57.79
73112;HTU21D;61301;51.956;5.876;2024-02-28T07:14:46;8.59;57.81
73112;HTU21D;61301;51.956;5.876;2024-02-28T07:17:12;8.72;57.40
73112;HTU21D;61301;51.956;5.876;2024-02-28T07:19:38;8.72;57.11
73112;HTU21D;61301;51.956;5.876;2024-02-28T07:22:04;8.72;57.28
73112;HTU21D;61301;51.956;5.876;2024-02-28T07:24:31;8.78;57.31
73112;HTU21D;61301;51.956;5.876;2024-02-28T07:26:57;8.77;57.11
73112;HTU21D;61301;51.956;5.876;2024-02-28T07:29:23;8.82;57.25
73112;HTU21D;61301;51.956;5.876;2024-02-28T07:31:50;8.90;57.10
73112;HTU21D;61301;51.956;5.876;2024-02-28T07:34:16;8.92;56.93
73112;HTU21D;61301;51.956;5.876;2024-02-28T07:36:42;8.88;56.75
73112;HTU21D;61301;51.956;5.876;2024-02-28T07:39:08;8.88;56.99
73112;HTU21D;61301;51.956;5.876;2024-02-28T07:41:39;8.89;57.35
73112;HTU21D;61301;51.956;5.876;2024-02-28T07:44:05;8.88;57.50
73112;HTU21D;61301;51.956;5.876;2024-02-28T07:46:33;8.87;57.56
73112;HTU21D;61301;51.956;5.876;2024-02-28T07:48:59;8.85;57.61
73112;HTU21D;61301;51.956;5.876;2024-02-28T07:51:27;8.94;57.85
73112;HTU21D;61301;51.956;5.876;2024-02-28T07:53:53;8.98;57.67
73112;HTU21D;61301;51.956;5.876;2024-02-28T07:56:20;9.02;57.88
73112;HTU21D;61301;51.956;5.876;2024-02-28T07:58:46;9.03;58.13
73112;HTU21D;61301;51.956;5.876;2024-02-28T08:01:13;9.06;58.28
73112;HTU21D;61301;51.956;5.876;2024-02-28T08:03:39;9.09;58.27
73112;HTU21D;61301;51.956;5.876;2024-02-28T08:06:05;9.21;58.26
73112;HTU21D;61301;51.956;5.876;2024-02-28T08:08:31;9.32;58.22
73112;HTU21D;61301;51.956;5.876;2024-02-28T08:10:57;9.22;58.00
73112;HTU21D;61301;51.956;5.876;2024-02-28T08:13:23;9.22;58.25
73112;HTU21D;61301;51.956;5.876;2024-02-28T08:15:49;9.33;58.11
73112;HTU21D;61301;51.956;5.876;2024-02-28T08:18:15;9.39;58.11
73112;HTU21D;61301;51.956;5.876;2024-02-28T08:20:41;9.36;57.98
73112;HTU21D;61301;51.956;5.876;2024-02-28T08:23:08;9.21;57.80
73112;HTU21D;61301;51.956;5.876;2024-02-28T08:25:33;9.26;58.31
73112;HTU21D;61301;51.956;5.876;2024-02-28T08:28:00;9.25;58.22
73112;HTU21D;61301;51.956;5.876;2024-02-28T08:30:26;9.22;58.23
73112;HTU21D;61301;51.956;5.876;2024-02-28T08:32:52;9.20;58.41
73112;HTU21D;61301;51.956;5.876;2024-02-28T08:35:18;9.24;58.59
73112;HTU21D;61301;51.956;5.876;2024-02-28T08:37:44;9.36;58.54
73112;HTU21D;61301;51.956;5.876;2024-02-28T08:40:11;9.30;58.50
73112;HTU21D;61301;51.956;5.876;2024-02-28T08:42:37;9.27;58.74
73112;HTU21D;61301;51.956;5.876;2024-02-28T08:45:03;9.22;58.77
73112;HTU21D;61301;51.956;5.876;2024-02-28T08:47:31;9.21;58.99
73112;HTU21D;61301;51.956;5.876;2024-02-28T08:49:57;9.26;59.16
73112;HTU21D;61301;51.956;5.876;2024-02-28T08:52:23;9.27;59.37
73112;HTU21D;61301;51.956;5.876;2024-02-28T08:54:49;9.47;59.73
73112;HTU21D;61301;51.956;5.876;2024-02-28T08:57:16;9.65;59.61
73112;HTU21D;61301;51.956;5.876;2024-02-28T08:59:42;9.86;59.48
73112;HTU21D;61301;51.956;5.876;2024-02-28T09:02:08;9.95;59.40
73112;HTU21D;61301;51.956;5.876;2024-02-28T09:04:35;10.10;59.25
73112;HTU21D;61301;51.956;5.876;2024-02-28T09:07:01;10.13;58.70
73112;HTU21D;61301;51.956;5.876;2024-02-28T09:09:27;10.05;58.66
73112;HTU21D;61301;51.956;5.876;2024-02-28T09:12:00;10.05;58.75
73112;HTU21D;61301;51.956;5.876;2024-02-28T09:14:28;10.07;58.74
73112;HTU21D;61301;51.956;5.876;2024-02-28T09:16:54;10.21;58.71
73112;HTU21D;61301;51.956;5.876;2024-02-28T09:19:27;10.30;58.73
73112;HTU21D;61301;51.956;5.876;2024-02-28T09:21:53;10.24;58.13
73112;HTU21D;61301;51.956;5.876;2024-02-28T09:24:19;10.19;58.48
73112;HTU21D;61301;51.956;5.876;2024-02-28T09:26:45;10.35;58.22
73112;HTU21D;61301;51.956;5.876;2024-02-28T09:29:11;10.31;58.37
73112;HTU21D;61301;51.956;5.876;2024-02-28T09:31:37;10.33;58.61
73112;HTU21D;61301;51.956;5.876;2024-02-28T09:34:03;10.46;58.51
73112;HTU21D;61301;51.956;5.876;2024-02-28T09:36:40;10.54;58.27
73112;HTU21D;61301;51.956;5.876;2024-02-28T09:39:07;10.66;58.09
73112;HTU21D;61301;51.956;5.876;2024-02-28T09:41:32;10.64;57.26
73112;HTU21D;61301;51.956;5.876;2024-02-28T09:44:00;10.56;57.92
73112;HTU21D;61301;51.956;5.876;2024-02-28T09:46:29;10.60;58.08
73112;HTU21D;61301;51.956;5.876;2024-02-28T09:48:55;10.68;57.95
73112;HTU21D;61301;51.956;5.876;2024-02-28T09:51:22;10.72;57.77
73112;HTU21D;61301;51.956;5.876;2024-02-28T09:53:50;10.60;57.84
73112;HTU21D;61301;51.956;5.876;2024-02-28T09:56:17;10.66;58.17
73112;HTU21D;61301;51.956;5.876;2024-02-28T09:58:43;10.77;57.79
73112;HTU21D;61301;51.956;5.876;2024-02-28T10:01:11;10.90;57.61
73112;HTU21D;61301;51.956;5.876;2024-02-28T10:03:37;10.88;57.48
73112;HTU21D;61301;51.956;5.876;2024-02-28T10:06:05;10.94;57.41
73112;HTU21D;61301;51.956;5.876;2024-02-28T10:08:31;10.95;57.39
73112;HTU21D;61301;51.956;5.876;2024-02-28T10:10:58;10.94;57.39
73112;HTU21D;61301;51.956;5.876;2024-02-28T10:13:24;11.08;56.77
73112;HTU21D;61301;51.956;5.876;2024-02-28T10:15:50;10.99;57.19
73112;HTU21D;61301;51.956;5.876;2024-02-28T10:18:16;11.05;57.21
73112;HTU21D;61301;51.956;5.876;2024-02-28T10:20:42;11.16;56.80
73112;HTU21D;61301;51.956;5.876;2024-02-28T10:23:08;11.09;56.93
73112;HTU21D;61301;51.956;5.876;2024-02-28T10:25:47;11.00;57.48
73112;HTU21D;61301;51.956;5.876;2024-02-28T10:28:14;11.08;57.41
73112;HTU21D;61301;51.956;5.876;2024-02-28T10:30:41;11.14;57.52
73112;HTU21D;61301;51.956;5.876;2024-02-28T10:33:14;11.20;57.49
73112;HTU21D;61301;51.956;5.876;2024-02-28T10:35:41;11.16;57.46
73112;HTU21D;61301;51.956;5.876;2024-02-28T10:38:11;11.13;57.50
73112;HTU21D;61301;51.956;5.876;2024-02-28T10:40:40;11.10;57.28
73112;HTU21D;61301;51.956;5.876;2024-02-28T10:43:10;11.12;57.19
73112;HTU21D;61301;51.956;5.876;2024-02-28T10:45:39;11.00;57.37
73112;HTU21D;61301;51.956;5.876;2024-02-28T10:48:06;10.96;57.55
73112;HTU21D;61301;51.956;5.876;2024-02-28T10:50:32;11.04;57.80
73112;HTU21D;61301;51.956;5.876;2024-02-28T10:53:02;11.11;57.87
73112;HTU21D;61301;51.956;5.876;2024-02-28T10:55:33;11.22;57.94
73112;HTU21D;61301;51.956;5.876;2024-02-28T10:58:07;11.41;57.61
73112;HTU21D;61301;51.956;5.876;2024-02-28T11:00:34;11.40;57.55
73112;HTU21D;61301;51.956;5.876;2024-02-28T11:03:02;11.37;57.77
73112;HTU21D;61301;51.956;5.876;2024-02-28T11:05:39;11.33;57.80
73112;HTU21D;61301;51.956;5.876;2024-02-28T11:08:21;11.36;57.87
73112;HTU21D;61301;51.956;5.876;2024-02-28T11:10:55;11.43;58.19
73112;HTU21D;61301;51.956;5.876;2024-02-28T11:13:22;11.55;57.75
73112;HTU21D;61301;51.956;5.876;2024-02-28T11:15:48;11.63;57.84
73112;HTU21D;61301;51.956;5.876;2024-02-28T11:18:14;11.76;57.29
73112;HTU21D;61301;51.956;5.876;2024-02-28T11:20:40;11.87;57.42
73112;HTU21D;61301;51.956;5.876;2024-02-28T11:23:09;11.99;57.39
73112;HTU21D;61301;51.956;5.876;2024-02-28T11:25:36;12.11;57.07
73112;HTU21D;61301;51.956;5.876;2024-02-28T11:28:02;12.21;56.67
73112;HTU21D;61301;51.956;5.876;2024-02-28T11:30:28;12.22;56.89
73112;HTU21D;61301;51.956;5.876;2024-02-28T11:32:54;12.19;56.90
73112;HTU21D;61301;51.956;5.876;2024-02-28T11:35:21;12.23;57.08
73112;HTU21D;61301;51.956;5.876;2024-02-28T11:37:47;12.36;56.87
73112;HTU21D;61301;51.956;5.876;2024-02-28T11:40:13;12.48;56.83
73112;HTU21D;61301;51.956;5.876;2024-02-28T11:42:40;12.55;56.58
73112;HTU21D;61301;51.956;5.876;2024-02-28T11:45:10;12.63;56.55
73112;HTU21D;61301;51.956;5.876;2024-02-28T11:47:36;12.61;56.34
73112;HTU21D;61301;51.956;5.876;2024-02-28T11:50:03;12.61;56.27
73112;HTU21D;61301;51.956;5.876;2024-02-28T11:52:33;12.64;56.71
73112;HTU21D;61301;51.956;5.876;2024-02-28T11:54:59;12.74;56.74
73112;HTU21D;61301;51.956;5.876;2024-02-28T11:57:28;12.88;56.30
73112;HTU21D;61301;51.956;5.876;2024-02-28T11:59:56;12.92;55.91
73112;HTU21D;61301;51.956;5.876;2024-02-28T12:02:23;12.95;56.15
73112;HTU21D;61301;51.956;5.876;2024-02-28T12:04:52;13.07;56.01
73112;HTU21D;61301;51.956;5.876;2024-02-28T12:07:20;13.08;56.23
73112;HTU21D;61301;51.956;5.876;2024-02-28T12:09:46;13.24;55.34
73112;HTU21D;61301;51.956;5.876;2024-02-28T12:12:14;13.23;55.15
73112;HTU21D;61301;51.956;5.876;2024-02-28T12:14:40;13.19;55.53
73112;HTU21D;61301;51.956;5.876;2024-02-28T12:17:10;13.22;55.97
73112;HTU21D;61301;51.956;5.876;2024-02-28T12:19:36;13.31;56.20
73112;HTU21D;61301;51.956;5.876;2024-02-28T12:22:02;13.33;56.29
73112;HTU21D;61301;51.956;5.876;2024-02-28T12:24:30;13.41;56.00
73112;HTU21D;61301;51.956;5.876;2024-02-28T12:27:02;13.47;56.14
73112;HTU21D;61301;51.956;5.876;2024-02-28T12:29:28;13.48;56.22
73112;HTU21D;61301;51.956;5.876;2024-02-28T12:31:54;13.53;55.90
73112;HTU21D;61301;51.956;5.876;2024-02-28T12:34:20;13.63;55.78
73112;HTU21D;61301;51.956;5.876;2024-02-28T12:36:47;13.70;55.61
73112;HTU21D;61301;51.956;5.876;2024-02-28T12:39:12;13.77;55.04
73112;HTU21D;61301;51.956;5.876;2024-02-28T12:41:41;13.82;55.25
73112;HTU21D;61301;51.956;5.876;2024-02-28T12:44:07;13.93;54.75
73112;HTU21D;61301;51.956;5.876;2024-02-28T12:46:34;13.94;55.04
73112;HTU21D;61301;51.956;5.876;2024-02-28T12:49:01;14.05;54.68
73112;HTU21D;61301;51.956;5.876;2024-02-28T12:51:43;14.27;54.32
73112;HTU21D;61301;51.956;5.876;2024-02-28T12:54:11;14.29;54.20
73112;HTU21D;61301;51.956;5.876;2024-02-28T12:56:39;14.28;54.41
73112;HTU21D;61301;51.956;5.876;2024-02-28T12:59:06;14.33;54.19
73112;HTU21D;61301;51.956;5.876;2024-02-28T13:01:35;14.33;54.24
73112;HTU21D;61301;51.956;5.876;2024-02-28T13:04:01;14.21;54.49
73112;HTU21D;61301;51.956;5.876;2024-02-28T13:06:28;14.26;54.47
73112;HTU21D;61301;51.956;5.876;2024-02-28T13:08:54;14.23;54.48
73112;HTU21D;61301;51.956;5.876;2024-02-28T13:11:21;14.34;54.66
73112;HTU21D;61301;51.956;5.876;2024-02-28T13:13:48;14.36;54.71
73112;HTU21D;61301;51.956;5.876;2024-02-28T13:16:18;14.45;54.35
73112;HTU21D;61301;51.956;5.876;2024-02-28T13:18:45;14.43;54.52
73112;HTU21D;61301;51.956;5.876;2024-02-28T13:21:12;14.60;54.04
73112;HTU21D;61301;51.956;5.876;2024-02-28T13:23:38;14.57;53.23
73112;HTU21D;61301;51.956;5.876;2024-02-28T13:26:04;14.49;53.72
73112;HTU21D;61301;51.956;5.876;2024-02-28T13:28:31;14.48;53.65
73112;HTU21D;61301;51.956;5.876;2024-02-28T13:31:01;14.50;54.02
73112;HTU21D;61301;51.956;5.876;2024-02-28T13:33:28;14.48;53.62
73112;HTU21D;61301;51.956;5.876;2024-02-28T13:35:54;14.38;53.74
73112;HTU21D;61301;51.956;5.876;2024-02-28T13:38:20;14.30;53.94
73112;HTU21D;61301;51.956;5.876;2024-02-28T13:40:47;14.24;54.30
73112;HTU21D;61301;51.956;5.876;2024-02-28T13:43:14;14.35;54.21
73112;HTU21D;61301;51.956;5.876;2024-02-28T13:45:46;14.40;54.01
73112;HTU21D;61301;51.956;5.876;2024-02-28T13:48:20;14.47;53.95
73112;HTU21D;61301;51.956;5.876;2024-02-28T13:50:57;14.40;54.09
73112;HTU21D;61301;51.956;5.876;2024-02-28T13:53:23;14.36;54.20
73112;HTU21D;61301;51.956;5.876;2024-02-28T13:55:51;14.48;54.08
73112;HTU21D;61301;51.956;5.876;2024-02-28T13:58:17;14.66;53.10
73112;HTU21D;61301;51.956;5.876;2024-02-28T14:00:44;14.64;53.21
73112;HTU21D;61301;51.956;5.876;2024-02-28T14:03:14;14.47;53.84
73112;HTU21D;61301;51.956;5.876;2024-02-28T14:05:43;14.41;54.09
73112;HTU21D;61301;51.956;5.876;2024-02-28T14:08:12;14.38;54.09
73112;HTU21D;61301;51.956;5.876;2024-02-28T14:10:38;14.48;54.13
73112;HTU21D;61301;51.956;5.876;2024-02-28T14:13:04;14.63;53.46
73112;HTU21D;61301;51.956;5.876;2024-02-28T14:15:30;14.73;52.99
73112;HTU21D;61301;51.956;5.876;2024-02-28T14:17:56;14.68;53.06
73112;HTU21D;61301;51.956;5.876;2024-02-28T14:20:22;14.64;53.37
73112;HTU21D;61301;51.956;5.876;2024-02-28T14:22:48;14.60;53.56
73112;HTU21D;61301;51.956;5.876;2024-02-28T14:25:18;14.67;53.50
73112;HTU21D;61301;51.956;5.876;2024-02-28T14:27:48;14.55;53.80
73112;HTU21D;61301;51.956;5.876;2024-02-28T14:30:14;14.56;53.81
73112;HTU21D;61301;51.956;5.876;2024-02-28T14:32:42;14.54;54.06
73112;HTU21D;61301;51.956;5.876;2024-02-28T14:35:09;14.49;54.17
73112;HTU21D;61301;51.956;5.876;2024-02-28T14:37:37;14.56;53.84
73112;HTU21D;61301;51.956;5.876;2024-02-28T14:40:07;14.52;53.97
73112;HTU21D;61301;51.956;5.876;2024-02-28T14:42:40;14.62;53.59
73112;HTU21D;61301;51.956;5.876;2024-02-28T14:45:08;14.69;53.56
73112;HTU21D;61301;51.956;5.876;2024-02-28T14:47:34;14.75;53.04
73112;HTU21D;61301;51.956;5.876;2024-02-28T14:50:04;14.75;52.86
73112;HTU21D;61301;51.956;5.876;2024-02-28T14:52:30;14.60;53.27
73112;HTU21D;61301;51.956;5.876;2024-02-28T14:54:56;14.47;53.57
73112;HTU21D;61301;51.956;5.876;2024-02-28T14:57:22;14.38;54.12
73112;HTU21D;61301;51.956;5.876;2024-02-28T14:59:54;14.41;54.42
73112;HTU21D;61301;51.956;5.876;2024-02-28T15:02:20;14.39;54.21
73112;HTU21D;61301;51.956;5.876;2024-02-28T15:04:46;14.28;54.32
73112;HTU21D;61301;51.956;5.876;2024-02-28T15:07:16;14.30;54.60
73112;HTU21D;61301;51.956;5.876;2024-02-28T15:09:42;14.41;54.35
73112;HTU21D;61301;51.956;5.876;2024-02-28T15:12:09;14.49;53.88
73112;HTU21D;61301;51.956;5.876;2024-02-28T15:14:35;14.49;53.70
73112;HTU21D;61301;51.956;5.876;2024-02-28T15:17:01;14.45;53.76
73112;HTU21D;61301;51.956;5.876;2024-02-28T15:19:27;14.44;53.99
73112;HTU21D;61301;51.956;5.876;2024-02-28T15:21:56;14.45;54.09
73112;HTU21D;61301;51.956;5.876;2024-02-28T15:24:22;14.53;53.94